Time;durP1;ratioP1;P1;durP2;ratioP2;P2;SDS_P1;SDS_P2;PMS_P1;PMS_P2;Temp;Humidity;BMP_temperature;BMP_pressure;BME280_temperature;BME280_humidity;BME280_pressure;Samples;Min_cycle;Max_cycle;Signal;HPM_P1;HPM_P2
2021/07/03 00:01:24;;;;;;;10.38;5.50;;;17.10;90.60;;;;;;4975320;28;20073;-76
2021/07/03 00:03:50;;;;;;;11.07;5.85;;;17.10;90.60;;;;;;4975936;28;20355;-75
2021/07/03 00:06:15;;;;;;;9.82;5.15;;;17.10;90.60;;;;;;4992897;28;20489;-76
2021/07/03 00:08:41;;;;;;;12.82;6.03;;;17.10;90.60;;;;;;4992544;28;20034;-76
2021/07/03 00:11:08;;;;;;;11.80;5.47;;;17.10;90.60;;;;;;4993014;28;20054;-76
2021/07/03 00:13:34;;;;;;;13.20;6.03;;;17.10;90.70;;;;;;4975112;28;20117;-76
2021/07/03 00:16:00;;;;;;;11.48;5.97;;;17.00;90.70;;;;;;4993382;28;20022;-76
2021/07/03 00:18:26;;;;;;;11.27;5.60;;;17.00;90.70;;;;;;4974967;28;20117;-76
2021/07/03 00:20:52;;;;;;;14.20;6.40;;;17.00;90.70;;;;;;4975553;28;20030;-76
2021/07/03 00:23:17;;;;;;;11.68;5.85;;;17.00;90.70;;;;;;4975572;28;20458;-76
2021/07/03 00:25:43;;;;;;;11.38;5.55;;;17.00;90.70;;;;;;4974926;28;20386;-76
2021/07/03 00:28:09;;;;;;;11.98;6.18;;;16.90;90.70;;;;;;4975468;28;20479;-76
2021/07/03 00:30:35;;;;;;;12.23;5.57;;;16.90;90.70;;;;;;4974802;28;20026;-76
2021/07/03 00:33:02;;;;;;;10.70;5.55;;;16.90;90.80;;;;;;4975463;28;20092;-76
2021/07/03 00:35:28;;;;;;;11.05;6.00;;;16.90;90.80;;;;;;4974746;28;20372;-76
2021/07/03 00:37:53;;;;;;;13.77;6.25;;;16.90;90.80;;;;;;4992791;28;20516;-76
2021/07/03 00:40:19;;;;;;;12.05;5.90;;;16.90;90.80;;;;;;4975299;28;20031;-76
2021/07/03 00:42:45;;;;;;;13.82;6.10;;;16.80;90.80;;;;;;4992068;28;20027;-76
2021/07/03 00:45:11;;;;;;;12.63;6.15;;;16.80;90.80;;;;;;4975302;28;20035;-76
2021/07/03 00:47:37;;;;;;;10.65;5.50;;;16.80;90.80;;;;;;4974464;28;20034;-76
2021/07/03 00:50:05;;;;;;;13.00;6.40;;;16.80;90.80;;;;;;4975167;28;20121;-76
2021/07/03 00:52:31;;;;;;;12.65;6.25;;;16.80;90.90;;;;;;4974489;28;20048;-76
2021/07/03 00:54:57;;;;;;;11.13;5.85;;;16.80;90.90;;;;;;4975208;28;20466;-77
2021/07/03 00:57:22;;;;;;;12.02;6.30;;;16.80;90.90;;;;;;4975068;28;20346;-76
2021/07/03 00:59:48;;;;;;;13.00;6.20;;;16.80;90.90;;;;;;4974545;28;20022;-76
2021/07/03 01:02:16;;;;;;;11.50;5.78;;;16.80;90.90;;;;;;4975055;28;20034;-76
2021/07/03 01:04:43;;;;;;;11.30;6.10;;;16.70;90.90;;;;;;4974395;28;20027;-77
2021/07/03 01:07:10;;;;;;;11.65;5.93;;;16.70;90.90;;;;;;4974984;28;20033;-76
2021/07/03 01:09:35;;;;;;;13.20;5.93;;;16.70;90.90;;;;;;4991833;28;20029;-76
2021/07/03 01:12:03;;;;;;;11.55;6.03;;;16.70;90.90;;;;;;4974571;28;20058;-76
2021/07/03 01:14:29;;;;;;;14.27;6.45;;;16.60;90.90;;;;;;4992021;28;20529;-77
2021/07/03 01:16:54;;;;;;;14.73;6.53;;;16.70;90.90;;;;;;4975224;28;20026;-77
2021/07/03 01:19:21;;;;;;;9.77;5.57;;;16.70;90.90;;;;;;4992379;28;20359;-76
2021/07/03 01:21:51;;;;;;;12.85;6.32;;;16.60;90.90;;;;;;4974312;28;20034;-76
2021/07/03 01:24:18;;;;;;;10.87;6.33;;;16.60;91.00;;;;;;4974976;28;20054;-75
2021/07/03 01:26:49;;;;;;;12.00;6.45;;;16.60;90.90;;;;;;4974112;28;20117;-75
2021/07/03 01:29:15;;;;;;;;;;;16.60;90.90;;;;;;4975304;28;20025;-75
2021/07/03 01:31:42;;;;;;;10.60;5.35;;;16.50;90.90;;;;;;4991629;28;19906;-75
2021/07/03 01:34:08;;;;;;;12.68;5.97;;;16.60;90.90;;;;;;4974715;28;20031;-75
2021/07/03 01:36:34;;;;;;;10.30;5.47;;;16.50;91.10;;;;;;4974217;28;20041;-75
2021/07/03 01:39:00;;;;;;;12.90;6.57;;;16.50;90.90;;;;;;4974666;28;20125;-75
2021/07/03 01:41:25;;;;;;;13.60;6.90;;;16.50;90.90;;;;;;4992301;28;20027;-76
2021/07/03 01:43:51;;;;;;;11.50;5.70;;;16.50;90.90;;;;;;4974048;28;20465;-76
2021/07/03 01:46:17;;;;;;;11.45;6.20;;;16.50;90.90;;;;;;4992068;28;20037;-76
2021/07/03 01:48:43;;;;;;;12.02;5.85;;;16.50;91.00;;;;;;4974048;28;20023;-76
2021/07/03 01:51:08;;;;;;;14.77;6.20;;;16.40;91.00;;;;;;4992420;28;20427;-76
2021/07/03 01:53:34;;;;;;;11.27;5.78;;;16.50;91.00;;;;;;4974040;28;20076;-76
2021/07/03 01:56:00;;;;;;;13.85;7.05;;;16.50;91.10;;;;;;4991793;28;20149;-77
2021/07/03 01:58:26;;;;;;;14.82;6.93;;;16.40;91.10;;;;;;4992383;28;20034;-76
2021/07/03 02:00:54;;;;;;;13.27;7.03;;;16.40;91.10;;;;;;4991426;28;20030;-76
2021/07/03 02:03:20;;;;;;;12.63;6.35;;;16.40;91.10;;;;;;4974178;28;20038;-76
2021/07/03 02:05:46;;;;;;;15.68;6.75;;;16.40;91.10;;;;;;4993922;28;20034;-76
2021/07/03 02:08:12;;;;;;;14.30;6.43;;;16.40;91.10;;;;;;4978135;28;20034;-76
2021/07/03 02:10:38;;;;;;;11.40;5.60;;;16.40;91.10;;;;;;4994844;28;20030;-77
2021/07/03 02:13:04;;;;;;;11.52;6.20;;;16.40;91.10;;;;;;4995669;28;20379;-76
2021/07/03 02:15:30;;;;;;;11.65;6.15;;;16.40;91.10;;;;;;4977406;28;20030;-78
2021/07/03 02:17:57;;;;;;;11.00;5.80;;;16.30;91.10;;;;;;4995413;28;20031;-76
2021/07/03 02:20:23;;;;;;;15.80;6.35;;;16.30;91.10;;;;;;4995234;28;20533;-76
2021/07/03 02:22:49;;;;;;;11.93;5.85;;;16.30;91.10;;;;;;4976958;28;20027;-76
2021/07/03 02:25:14;;;;;;;13.52;6.43;;;16.30;91.10;;;;;;4995216;28;20113;-76
2021/07/03 02:27:40;;;;;;;9.77;5.53;;;16.30;91.10;;;;;;4994152;28;20085;-76
2021/07/03 02:30:12;;;;;;;11.80;5.70;;;16.30;91.10;;;;;;4995069;28;20026;-76
2021/07/03 02:32:38;;;;;;;15.13;6.18;;;16.30;91.10;;;;;;4994475;28;20478;-76
2021/07/03 02:35:05;;;;;;;12.20;6.15;;;16.20;91.10;;;;;;4977521;28;20030;-76
2021/07/03 02:37:30;;;;;;;10.68;5.82;;;16.30;91.10;;;;;;4977572;28;20030;-75
2021/07/03 02:39:56;;;;;;;13.98;6.22;;;16.20;91.20;;;;;;4977106;28;20471;-75
2021/07/03 02:42:22;;;;;;;12.63;5.80;;;16.20;91.10;;;;;;4994993;28;20053;-76
2021/07/03 02:44:48;;;;;;;12.27;6.72;;;16.20;91.10;;;;;;4976708;28;20019;-76
2021/07/03 02:47:13;;;;;;;13.13;6.78;;;16.20;91.20;;;;;;4994396;28;20045;-76
2021/07/03 02:49:39;;;;;;;12.82;6.47;;;16.20;91.20;;;;;;4976720;28;20054;-76
2021/07/03 02:52:05;;;;;;;12.13;7.38;;;16.20;91.20;;;;;;4994656;28;20022;-75
2021/07/03 02:54:31;;;;;;;15.55;6.55;;;16.20;91.20;;;;;;4977114;28;20069;-76
2021/07/03 02:56:59;;;;;;;15.55;7.35;;;16.10;91.10;;;;;;4976611;28;20058;-75
2021/07/03 02:59:26;;;;;;;14.38;6.85;;;16.10;91.20;;;;;;4977047;28;20026;-76
2021/07/03 03:01:52;;;;;;;18.75;8.00;;;16.10;91.20;;;;;;4976269;28;20030;-77
2021/07/03 03:04:19;;;;;;;15.25;7.50;;;16.10;91.20;;;;;;4994489;28;20026;-76
2021/07/03 03:06:45;;;;;;;15.35;8.43;;;16.10;91.20;;;;;;4993338;28;20500;-77
2021/07/03 03:09:11;;;;;;;16.60;7.10;;;16.10;91.20;;;;;;4976874;28;20022;-76
2021/07/03 03:11:36;;;;;;;16.80;7.55;;;16.10;91.20;;;;;;4975930;28;20449;-76
2021/07/03 03:14:02;;;;;;;18.52;7.57;;;16.10;91.20;;;;;;4976806;28;20466;-76
2021/07/03 03:16:29;;;;;;;17.33;8.02;;;16.10;91.20;;;;;;4975726;28;20034;-76
2021/07/03 03:18:55;;;;;;;17.75;8.23;;;16.10;91.20;;;;;;4993597;28;20080;-76
2021/07/03 03:21:21;;;;;;;18.67;8.23;;;16.10;91.20;;;;;;4976621;28;20374;-76
2021/07/03 03:23:46;;;;;;;18.38;9.98;;;16.10;91.20;;;;;;4976011;28;20486;-76
2021/07/03 03:26:12;;;;;;;20.95;9.10;;;16.20;91.20;;;;;;4976387;28;20044;-76
2021/07/03 03:28:38;;;;;;;23.63;9.90;;;16.20;91.20;;;;;;4993404;28;20034;-76
2021/07/03 03:31:04;;;;;;;24.52;10.32;;;16.20;91.20;;;;;;4976465;28;20445;-76
2021/07/03 03:33:29;;;;;;;16.02;8.15;;;16.20;91.20;;;;;;4976323;28;20022;-76
2021/07/03 03:35:55;;;;;;;18.45;9.38;;;16.20;91.50;;;;;;4975451;28;20045;-76
2021/07/03 03:38:21;;;;;;;20.23;9.35;;;16.30;91.20;;;;;;4994108;28;20057;-76
2021/07/03 03:40:46;;;;;;;23.65;10.40;;;16.30;91.20;;;;;;4975594;28;20022;-75
2021/07/03 03:43:12;;;;;;;18.50;8.90;;;16.30;91.20;;;;;;4975919;28;20023;-75
2021/07/03 03:45:38;;;;;;;25.92;10.38;;;16.30;91.20;;;;;;4975595;28;20030;-75
2021/07/03 03:48:05;;;;;;;22.35;9.32;;;16.30;91.20;;;;;;4976007;28;20034;-75
2021/07/03 03:50:31;;;;;;;23.30;9.73;;;16.40;91.20;;;;;;4993565;28;20015;-75
2021/07/03 03:52:57;;;;;;;22.42;10.93;;;16.40;91.30;;;;;;4992971;28;20150;-75
2021/07/03 03:55:23;;;;;;;26.15;10.30;;;16.40;91.20;;;;;;4993514;28;20471;-75
2021/07/03 03:57:49;;;;;;;21.90;10.70;;;16.40;91.30;;;;;;4992848;28;20057;-75
2021/07/03 04:00:17;;;;;;;27.90;11.18;;;16.40;91.30;;;;;;4975976;28;20434;-75
2021/07/03 04:02:43;;;;;;;22.58;9.85;;;16.40;91.30;;;;;;4992803;28;20018;-74
2021/07/03 04:05:09;;;;;;;24.33;10.98;;;16.40;91.30;;;;;;4975756;28;20114;-75
2021/07/03 04:07:35;;;;;;;21.00;9.95;;;16.40;91.30;;;;;;4993325;28;20036;-75
2021/07/03 04:10:00;;;;;;;26.48;10.98;;;16.50;91.40;;;;;;4975104;28;20121;-75
2021/07/03 04:12:26;;;;;;;22.25;10.80;;;16.50;91.40;;;;;;4975490;28;20061;-75
2021/07/03 04:14:52;;;;;;;22.40;9.20;;;16.40;91.50;;;;;;4975036;28;20438;-75
2021/07/03 04:17:18;;;;;;;21.17;10.20;;;16.40;91.50;;;;;;4975542;28;20056;-75
2021/07/03 04:19:44;;;;;;;19.70;9.15;;;16.40;91.60;;;;;;4974964;28;20026;-75
2021/07/03 04:22:09;;;;;;;21.33;10.02;;;16.40;91.60;;;;;;4993132;28;20348;-75
2021/07/03 04:24:35;;;;;;;19.77;8.55;;;16.40;91.60;;;;;;4975546;28;20018;-75
2021/07/03 04:27:03;;;;;;;21.15;10.00;;;16.40;91.70;;;;;;4991991;28;20554;-75
2021/07/03 04:29:29;;;;;;;22.15;10.07;;;16.40;91.70;;;;;;4975384;28;20050;-75
2021/07/03 04:31:55;;;;;;;23.65;10.82;;;16.40;91.70;;;;;;4974849;28;20072;-75
2021/07/03 04:34:21;;;;;;;20.00;10.73;;;16.40;91.80;;;;;;4975458;28;20023;-75
2021/07/03 04:36:46;;;;;;;27.70;11.07;;;16.40;91.80;;;;;;4992187;28;20390;-75
2021/07/03 04:39:12;;;;;;;22.65;10.85;;;16.40;91.80;;;;;;4974975;28;20042;-75
2021/07/03 04:41:38;;;;;;;20.58;10.35;;;16.40;91.80;;;;;;4992759;28;20102;-75
2021/07/03 04:44:06;;;;;;;20.98;10.75;;;16.40;91.90;;;;;;4992141;28;20452;-76
2021/07/03 04:46:32;;;;;;;24.90;11.70;;;16.40;92.00;;;;;;4975149;28;20022;-75
2021/07/03 04:48:59;;;;;;;22.52;10.27;;;16.40;91.90;;;;;;4974448;28;20532;-77
2021/07/03 04:51:24;;;;;;;24.10;10.90;;;16.40;91.90;;;;;;4975198;28;20501;-76
2021/07/03 04:53:50;;;;;;;23.35;11.77;;;16.40;91.90;;;;;;4974519;28;20061;-76
2021/07/03 04:56:17;;;;;;;27.15;10.35;;;16.40;91.90;;;;;;4992609;28;20076;-76
2021/07/03 04:58:44;;;;;;;20.90;10.23;;;16.40;91.90;;;;;;4974596;28;20462;-76
2021/07/03 05:01:10;;;;;;;22.70;10.38;;;16.50;91.90;;;;;;4992489;28;20023;-75
2021/07/03 05:03:36;;;;;;;22.60;10.65;;;16.50;91.90;;;;;;4992523;28;20033;-75
2021/07/03 05:06:02;;;;;;;23.20;10.77;;;16.40;91.90;;;;;;4974441;28;20030;-75
2021/07/03 05:08:28;;;;;;;27.20;11.20;;;16.50;92.00;;;;;;4974789;28;20036;-75
2021/07/03 05:10:53;;;;;;;26.20;11.85;;;16.50;92.00;;;;;;4974200;28;20026;-76
2021/07/03 05:13:20;;;;;;;22.83;10.88;;;16.50;92.00;;;;;;4992476;28;20097;-75
2021/07/03 05:15:45;;;;;;;23.45;10.75;;;16.50;92.00;;;;;;4991836;28;20109;-76
2021/07/03 05:18:11;;;;;;;27.73;12.13;;;16.50;92.00;;;;;;4974942;28;20569;-75
2021/07/03 05:20:37;;;;;;;26.05;11.52;;;16.50;92.00;;;;;;4974911;28;20026;-75
2021/07/03 05:23:03;;;;;;;23.23;10.88;;;16.60;92.00;;;;;;4991717;28;20093;-76
2021/07/03 05:25:28;;;;;;;25.73;11.88;;;16.60;92.00;;;;;;4992012;28;20019;-76
2021/07/03 05:27:54;;;;;;;25.00;11.23;;;16.60;92.00;;;;;;4974144;28;20038;-75
2021/07/03 05:30:20;;;;;;;23.60;11.10;;;16.60;92.00;;;;;;4974854;28;20022;-75
2021/07/03 05:32:46;;;;;;;25.48;12.43;;;16.60;92.00;;;;;;4974179;28;20014;-75
2021/07/03 05:35:13;;;;;;;26.95;11.95;;;16.60;92.00;;;;;;4974850;28;20022;-75
2021/07/03 05:37:39;;;;;;;23.20;11.18;;;16.70;92.00;;;;;;4992228;28;20411;-75
2021/07/03 05:40:09;;;;;;;29.17;13.23;;;16.70;92.00;;;;;;4975679;28;20557;-75
2021/07/03 05:42:34;;;;;;;25.73;11.18;;;16.70;92.00;;;;;;4978370;28;20019;-75
2021/07/03 05:45:00;;;;;;;27.25;12.20;;;16.70;92.00;;;;;;4977771;28;20049;-75
2021/07/03 05:47:25;;;;;;;29.35;12.68;;;16.70;92.00;;;;;;4978294;28;20027;-75
2021/07/03 05:49:51;;;;;;;25.92;11.32;;;16.80;92.10;;;;;;4977689;28;20165;-75
2021/07/03 05:52:17;;;;;;;28.88;12.35;;;16.80;92.00;;;;;;4978377;28;20474;-75
2021/07/03 05:54:42;;;;;;;27.80;12.35;;;16.90;92.30;;;;;;4978282;28;20092;-76
2021/07/03 05:57:08;;;;;;;30.27;13.45;;;16.90;92.00;;;;;;4977502;28;20033;-75
2021/07/03 05:59:34;;;;;;;27.83;11.90;;;16.90;92.10;;;;;;4978330;28;20027;-76
2021/07/03 06:01:59;;;;;;;28.10;13.18;;;17.00;92.10;;;;;;4995033;28;20421;-75
2021/07/03 06:04:25;;;;;;;31.52;13.80;;;16.90;92.10;;;;;;4978139;28;20356;-75
2021/07/03 06:06:51;;;;;;;30.70;14.30;;;17.00;92.10;;;;;;4977367;28;20026;-76
2021/07/03 06:09:17;;;;;;;31.17;13.43;;;17.00;92.10;;;;;;4977995;28;20037;-76
2021/07/03 06:11:42;;;;;;;33.03;14.60;;;17.10;92.10;;;;;;4977589;28;20042;-75
2021/07/03 06:14:08;;;;;;;33.30;14.40;;;17.10;92.00;;;;;;4977251;28;20470;-75
2021/07/03 06:16:34;;;;;;;28.65;13.82;;;17.10;92.00;;;;;;4977894;28;20022;-75
2021/07/03 06:19:01;;;;;;;30.70;14.57;;;17.20;92.00;;;;;;4977244;28;20517;-75
2021/07/03 06:21:27;;;;;;;29.95;14.15;;;17.20;92.00;;;;;;4995234;28;20030;-76
2021/07/03 06:23:53;;;;;;;30.40;14.18;;;17.30;92.00;;;;;;4976807;28;20401;-76
2021/07/03 06:26:18;;;;;;;28.98;12.95;;;17.30;92.00;;;;;;4995179;28;20101;-75
2021/07/03 06:28:44;;;;;;;29.52;14.10;;;17.30;92.20;;;;;;4977753;28;20042;-75
2021/07/03 06:31:09;;;;;;;28.55;13.40;;;17.30;92.00;;;;;;4976972;28;20014;-76
2021/07/03 06:33:35;;;;;;;35.65;16.00;;;17.30;91.90;;;;;;4994993;28;20513;-76
2021/07/03 06:36:01;;;;;;;34.15;15.30;;;17.40;92.00;;;;;;4976758;28;20406;-76
2021/07/03 06:38:26;;;;;;;35.17;14.55;;;17.40;91.90;;;;;;4977447;28;20100;-76
2021/07/03 06:40:52;;;;;;;31.23;13.70;;;17.50;92.00;;;;;;4976769;28;20037;-76
2021/07/03 06:43:18;;;;;;;32.47;13.82;;;17.50;91.90;;;;;;4977419;28;20027;-76
2021/07/03 06:45:43;;;;;;;31.05;13.93;;;17.50;91.90;;;;;;4977420;28;20019;-76
2021/07/03 06:48:09;;;;;;;32.33;13.68;;;17.50;91.90;;;;;;4976502;28;20561;-76
2021/07/03 06:50:35;;;;;;;26.35;13.10;;;17.50;91.90;;;;;;4994443;28;20097;-76
2021/07/03 06:53:01;;;;;;;28.23;12.57;;;17.60;91.90;;;;;;4976551;28;20019;-76
2021/07/03 06:55:26;;;;;;;30.20;13.40;;;17.60;91.90;;;;;;4977109;28;20018;-76
2021/07/03 06:57:52;;;;;;;29.17;14.82;;;17.60;91.90;;;;;;4994076;28;20045;-78
2021/07/03 07:00:18;;;;;;;27.63;13.60;;;17.60;91.90;;;;;;4977129;28;20018;-77
2021/07/03 07:02:43;;;;;;;27.75;13.80;;;17.70;91.90;;;;;;4977046;28;20022;-75
2021/07/03 07:05:10;;;;;;;29.38;13.63;;;17.70;91.90;;;;;;4993575;28;20347;-75
2021/07/03 07:07:36;;;;;;;26.85;14.30;;;17.80;91.80;;;;;;4976991;28;20029;-75
2021/07/03 07:10:03;;;;;;;26.05;13.23;;;17.80;91.70;;;;;;4976247;28;20026;-75
2021/07/03 07:12:29;;;;;;;29.80;13.93;;;17.80;92.00;;;;;;4967756;28;20521;-75
2021/07/03 07:14:55;;;;;;;36.15;14.07;;;17.90;91.70;;;;;;4954989;29;20035;-76
2021/07/03 07:17:20;;;;;;;32.53;12.88;;;17.90;91.70;;;;;;4954248;29;20050;-76
2021/07/03 07:19:46;;;;;;;23.63;12.25;;;17.90;91.60;;;;;;4955523;29;20146;-76
2021/07/03 07:22:12;;;;;;;25.35;12.45;;;18.00;91.60;;;;;;4954906;29;20027;-76
2021/07/03 07:24:37;;;;;;;30.67;14.20;;;18.00;91.60;;;;;;4953806;29;20038;-77
2021/07/03 07:27:03;;;;;;;26.70;13.45;;;18.00;91.60;;;;;;4954315;29;20062;-76
2021/07/03 07:29:29;;;;;;;32.15;14.82;;;18.20;91.50;;;;;;4954891;29;20030;-77
2021/07/03 07:31:54;;;;;;;29.67;13.45;;;18.20;91.50;;;;;;4953289;29;20109;-77
2021/07/03 07:34:20;;;;;;;30.88;14.30;;;18.20;91.40;;;;;;4953585;29;20510;-76
2021/07/03 07:36:46;;;;;;;25.88;12.85;;;18.30;91.40;;;;;;4953795;29;20036;-77
2021/07/03 07:39:12;;;;;;;26.67;14.13;;;18.30;91.40;;;;;;4954165;29;20204;-76
2021/07/03 07:41:38;;;;;;;31.65;13.50;;;18.30;91.40;;;;;;4954752;28;20027;-77
2021/07/03 07:44:04;;;;;;;26.80;13.25;;;18.40;91.30;;;;;;4953044;29;20031;-77
2021/07/03 07:46:30;;;;;;;26.83;13.02;;;18.40;91.30;;;;;;4954657;28;20102;-76
2021/07/03 07:48:57;;;;;;;24.23;12.60;;;18.40;91.30;;;;;;4953070;29;20552;-77
2021/07/03 07:51:23;;;;;;;29.45;13.02;;;18.50;91.20;;;;;;4953583;29;20035;-76
2021/07/03 07:53:49;;;;;;;29.38;12.57;;;18.60;91.10;;;;;;4953380;29;20055;-76
2021/07/03 07:56:18;;;;;;;27.95;13.48;;;18.60;91.00;;;;;;4952875;29;20020;-76
2021/07/03 07:58:44;;;;;;;28.77;13.38;;;18.70;91.00;;;;;;4953491;29;20085;-76
2021/07/03 08:01:13;;;;;;;26.08;13.32;;;18.70;90.90;;;;;;4952718;29;20023;-76
2021/07/03 08:03:39;;;;;;;25.73;13.35;;;18.80;90.90;;;;;;4952686;28;20118;-76
2021/07/03 08:06:04;;;;;;;26.02;13.70;;;18.80;90.80;;;;;;4952415;29;20191;-76
2021/07/03 08:08:30;;;;;;;27.92;14.07;;;18.80;90.80;;;;;;4953053;29;20074;-77
2021/07/03 08:10:56;;;;;;;28.20;13.20;;;18.90;90.80;;;;;;4952604;29;20030;-77
2021/07/03 08:13:21;;;;;;;28.55;14.38;;;18.90;90.80;;;;;;4952881;28;20494;-76
2021/07/03 08:15:49;;;;;;;27.20;13.75;;;19.00;90.80;;;;;;4953131;29;20607;-77
2021/07/03 08:18:15;;;;;;;27.42;14.52;;;19.00;90.80;;;;;;4953859;29;20438;-76
2021/07/03 08:20:41;;;;;;;31.02;13.10;;;19.00;90.70;;;;;;4952996;29;20030;-76
2021/07/03 08:23:07;;;;;;;21.23;10.98;;;19.00;90.70;;;;;;4952373;29;20031;-76
2021/07/03 08:25:34;;;;;;;28.63;13.18;;;19.10;90.60;;;;;;4954248;29;20114;-76
2021/07/03 08:27:59;;;;;;;21.85;10.63;;;19.20;90.50;;;;;;4952303;29;20117;-76
2021/07/03 08:30:28;;;;;;;22.52;11.60;;;19.20;90.40;;;;;;4953966;29;20118;-77
2021/07/03 08:32:54;;;;;;;20.42;10.52;;;19.30;90.30;;;;;;4954182;28;20123;-77
2021/07/03 08:35:20;;;;;;;23.30;10.68;;;19.30;90.20;;;;;;4952316;29;20339;-77
2021/07/03 08:37:47;;;;;;;23.50;11.45;;;19.40;90.20;;;;;;4952928;29;20089;-76
2021/07/03 08:40:15;;;;;;;19.75;10.63;;;19.40;90.10;;;;;;4952251;29;20037;-77
2021/07/03 08:42:41;;;;;;;22.90;11.07;;;19.40;90.10;;;;;;4953996;28;20034;-76
2021/07/03 08:45:08;;;;;;;21.08;10.45;;;19.50;90.00;;;;;;4953460;28;20102;-77
2021/07/03 08:47:35;;;;;;;22.77;11.30;;;19.50;90.00;;;;;;4953969;28;20086;-77
2021/07/03 08:50:02;;;;;;;20.13;10.45;;;19.60;89.80;;;;;;4951812;29;20101;-77
2021/07/03 08:52:28;;;;;;;25.17;12.05;;;19.60;89.60;;;;;;4954125;28;20022;-76
2021/07/03 08:55:09;;;;;;;18.73;10.98;;;19.70;89.60;;;;;;4952507;29;20023;-76
2021/07/03 08:57:46;;;;;;;17.90;9.57;;;19.70;89.40;;;;;;4953625;28;20034;-76
2021/07/03 09:00:13;;;;;;;21.40;10.13;;;19.70;89.50;;;;;;4951965;29;20122;-76
2021/07/03 09:02:43;;;;;;;16.02;9.48;;;19.80;89.50;;;;;;4952543;29;20023;-76
2021/07/03 09:05:31;;;;;;;17.48;8.65;;;19.80;89.40;;;;;;4953219;28;20031;-76
2021/07/03 09:08:06;;;;;;;19.50;9.07;;;19.80;89.30;;;;;;4953680;28;20039;-76
2021/07/03 09:10:33;;;;;;;18.58;9.68;;;19.90;89.20;;;;;;4952700;29;20031;-76
2021/07/03 09:13:00;;;;;;;20.58;10.32;;;20.00;89.10;;;;;;4971585;28;20057;-79
2021/07/03 09:15:37;;;;;;;18.75;9.95;;;20.00;89.00;;;;;;4977326;28;20034;-77
2021/07/03 09:18:05;;;;;;;20.98;8.93;;;20.10;88.80;;;;;;4995587;28;20035;-77
2021/07/03 09:20:48;;;;;;;23.85;10.40;;;20.10;88.50;;;;;;4978576;28;20030;-76
2021/07/03 09:23:22;;;;;;;18.13;9.20;;;20.20;88.20;;;;;;4978345;28;20035;-77
2021/07/03 09:25:56;;;;;;;15.80;8.57;;;20.20;88.20;;;;;;4978870;28;20026;-76
2021/07/03 09:28:38;;;;;;;15.73;8.50;;;20.20;87.60;;;;;;4977944;28;20486;-77
2021/07/03 09:31:06;;;;;;;16.90;8.20;;;20.30;87.30;;;;;;4978133;28;20033;-77
2021/07/03 09:33:33;;;;;;;19.17;8.18;;;20.40;87.30;;;;;;4978311;28;20049;-76
2021/07/03 09:36:02;;;;;;;19.05;9.05;;;20.40;87.10;;;;;;4978467;28;20073;-76
2021/07/03 09:38:48;;;;;;;12.27;6.95;;;20.50;87.00;;;;;;4995985;28;20168;-76
2021/07/03 09:41:25;;;;;;;14.52;7.38;;;20.50;86.60;;;;;;4977520;28;20042;-76
2021/07/03 09:43:50;;;;;;;12.20;6.20;;;20.60;86.30;;;;;;4978252;28;20141;-76
2021/07/03 09:46:22;;;;;;;13.02;7.50;;;20.60;86.20;;;;;;4977888;28;20053;-77
2021/07/03 09:48:50;;;;;;;17.75;8.23;;;20.70;86.00;;;;;;4978312;28;20150;-77
2021/07/03 09:51:15;;;;;;;14.63;8.77;;;20.70;85.70;;;;;;4977745;28;20027;-77
2021/07/03 09:53:42;;;;;;;15.82;8.52;;;20.80;85.50;;;;;;4978171;28;20026;-77
2021/07/03 09:56:08;;;;;;;14.73;8.68;;;20.80;85.10;;;;;;4994940;28;20542;-77
2021/07/03 09:58:35;;;;;;;14.20;7.70;;;20.80;84.80;;;;;;4978432;28;20121;-77
2021/07/03 10:01:00;;;;;;;12.02;6.68;;;20.90;84.50;;;;;;4995562;28;20026;-77
2021/07/03 10:03:26;;;;;;;10.98;6.75;;;21.00;84.30;;;;;;4977506;28;20018;-77
2021/07/03 10:05:56;;;;;;;13.77;6.43;;;21.10;84.00;;;;;;4978099;28;20037;-77
2021/07/03 10:08:23;;;;;;;12.32;6.45;;;21.10;83.50;;;;;;4977244;28;20097;-77
2021/07/03 10:10:54;;;;;;;11.65;6.50;;;21.20;83.30;;;;;;4995621;28;20133;-77
2021/07/03 10:13:22;;;;;;;14.93;6.72;;;21.30;82.90;;;;;;4977009;28;20050;-77
2021/07/03 10:15:48;;;;;;;10.75;6.68;;;21.30;82.70;;;;;;4995838;28;20026;-77
2021/07/03 10:18:23;;;;;;;11.85;5.72;;;21.40;82.60;;;;;;4977082;28;20026;-77
2021/07/03 10:20:53;;;;;;;13.25;6.90;;;21.40;82.30;;;;;;4977856;28;20061;-77
2021/07/03 10:23:20;;;;;;;13.90;6.95;;;21.50;82.30;;;;;;4977161;28;20024;-77
2021/07/03 10:25:50;;;;;;;14.05;6.82;;;21.50;82.00;;;;;;4977089;28;20466;-76
2021/07/03 10:28:17;;;;;;;10.68;6.10;;;21.50;81.90;;;;;;4994474;28;20110;-77
2021/07/03 10:30:49;;;;;;;13.55;6.50;;;21.60;81.70;;;;;;4995119;28;20054;-77
2021/07/03 10:33:21;;;;;;;11.93;5.95;;;21.70;81.20;;;;;;4977000;28;20072;-78
2021/07/03 10:35:48;;;;;;;14.10;6.50;;;21.80;81.00;;;;;;4977714;28;20123;-77
2021/07/03 10:38:27;;;;;;;12.45;6.68;;;21.80;80.70;;;;;;4994107;28;20386;-77
2021/07/03 10:41:11;;;;;;;13.10;5.80;;;21.90;80.50;;;;;;4995431;28;20023;-77
2021/07/03 10:43:44;;;;;;;8.90;4.70;;;22.00;80.30;;;;;;4977567;28;20431;-77
2021/07/03 10:46:10;;;;;;;8.98;5.13;;;22.10;79.70;;;;;;4976773;28;20121;-78
2021/07/03 10:48:35;;;;;;;13.23;5.55;;;22.20;79.40;;;;;;4977107;28;20121;-78
2021/07/03 10:51:12;;;;;;;11.55;5.53;;;22.30;79.30;;;;;;4977137;28;20014;-77
2021/07/03 10:53:38;;;;;;;12.65;5.78;;;22.40;79.00;;;;;;4977203;28;20335;-77
2021/07/03 10:56:15;;;;;;;9.60;5.05;;;22.40;78.90;;;;;;4977180;28;20026;-77
2021/07/03 10:58:43;;;;;;;9.85;4.82;;;22.60;78.50;;;;;;4977079;28;20034;-77
2021/07/03 11:01:11;;;;;;;7.93;4.28;;;22.70;78.10;;;;;;4976521;28;20026;-78
2021/07/03 11:03:45;;;;;;;11.20;5.10;;;22.90;77.70;;;;;;4977105;28;20030;-76
2021/07/03 11:06:16;;;;;;;12.40;5.53;;;23.10;77.20;;;;;;4976292;28;20081;-77
2021/07/03 11:08:43;;;;;;;17.50;5.85;;;23.20;76.80;;;;;;4976696;28;20045;-76
2021/07/03 11:11:13;;;;;;;12.00;5.50;;;23.30;76.40;;;;;;4976137;28;20030;-76
2021/07/03 11:13:41;;;;;;;13.18;5.93;;;23.40;76.20;;;;;;4976796;28;20054;-76
2021/07/03 11:16:11;;;;;;;9.43;5.15;;;23.50;75.80;;;;;;4976695;28;20110;-77
2021/07/03 11:18:42;;;;;;;9.98;5.68;;;23.60;75.50;;;;;;4994323;28;20022;-77
2021/07/03 11:21:10;;;;;;;8.63;4.75;;;23.80;74.80;;;;;;4976146;28;20022;-80
2021/07/03 11:23:36;;;;;;;9.98;4.75;;;24.00;74.30;;;;;;4976552;28;20451;-76
2021/07/03 11:26:28;;;;;;;13.30;5.22;;;24.00;73.80;;;;;;4994054;28;20493;-76
2021/07/03 11:28:58;;;;;;;12.30;5.47;;;24.20;73.70;;;;;;4976309;28;20046;-76
2021/07/03 11:31:24;;;;;;;6.82;4.38;;;24.30;73.40;;;;;;4975853;28;20022;-77
2021/07/03 11:33:54;;;;;;;9.73;4.70;;;24.40;73.10;;;;;;4993576;28;20073;-76
2021/07/03 11:36:20;;;;;;;8.77;5.70;;;24.50;72.40;;;;;;4975322;28;20014;-76
2021/07/03 11:38:53;;;;;;;7.95;4.55;;;24.60;72.20;;;;;;4975450;28;20493;-76
2021/07/03 11:41:23;;;;;;;9.27;4.85;;;24.70;71.90;;;;;;4975825;28;20042;-78
2021/07/03 11:43:56;;;;;;;9.68;5.18;;;24.90;71.50;;;;;;4976029;28;20050;-77
2021/07/03 11:46:22;;;;;;;6.18;3.92;;;25.00;71.20;;;;;;4992688;28;20072;-77
2021/07/03 11:48:48;;;;;;;7.65;4.32;;;25.20;70.70;;;;;;4993965;28;20115;-77
2021/07/03 11:51:13;;;;;;;7.97;3.92;;;25.40;69.80;;;;;;4992937;28;20054;-77
2021/07/03 11:53:41;;;;;;;8.07;5.05;;;25.60;69.40;;;;;;4976143;28;20034;-77
2021/07/03 11:56:06;;;;;;;11.65;4.43;;;25.60;69.00;;;;;;4976082;28;20052;-77
2021/07/03 11:58:34;;;;;;;7.15;3.95;;;25.80;68.60;;;;;;4975302;28;20080;-77
2021/07/03 12:01:19;;;;;;;8.25;4.32;;;26.00;68.10;;;;;;4993298;28;20033;-77
2021/07/03 12:03:47;;;;;;;7.05;4.10;;;26.20;67.70;;;;;;4993249;28;20018;-77
2021/07/03 12:06:21;;;;;;;10.63;4.60;;;26.30;67.50;;;;;;4975181;28;20018;-78
2021/07/03 12:08:48;;;;;;;8.48;4.20;;;26.30;67.40;;;;;;4975764;28;20382;-77
2021/07/03 12:11:16;;;;;;;6.65;3.65;;;26.40;67.20;;;;;;4975067;28;20121;-78
2021/07/03 12:13:56;;;;;;;6.55;3.72;;;26.40;67.00;;;;;;4993103;28;20471;-77
2021/07/03 12:16:25;;;;;;;7.10;4.13;;;26.40;66.90;;;;;;4992459;28;20030;-77
2021/07/03 12:18:57;;;;;;;10.25;4.32;;;26.50;66.80;;;;;;4975345;28;20121;-77
2021/07/03 12:21:23;;;;;;;11.68;5.00;;;26.70;66.50;;;;;;4992543;28;20041;-77
2021/07/03 12:23:49;;;;;;;6.80;4.22;;;26.70;66.30;;;;;;4975626;28;20027;-77
2021/07/03 12:26:26;;;;;;;6.47;3.63;;;26.80;65.90;;;;;;4974643;28;20023;-77
2021/07/03 12:29:10;;;;;;;7.68;3.83;;;26.90;65.80;;;;;;4993105;28;20085;-77
2021/07/03 12:31:39;;;;;;;5.95;3.30;;;26.80;65.70;;;;;;4974801;28;20024;-77
2021/07/03 12:34:09;;;;;;;6.03;3.63;;;26.70;65.40;;;;;;4993140;28;20026;-77